createdAt,value
2017-11-26T00:01:40.548Z,90.60
2017-11-26T00:04:08.778Z,90.50
2017-11-26T00:06:37.039Z,90.50
2017-11-26T00:09:05.275Z,90.90
2017-11-26T00:11:33.525Z,91.10
2017-11-26T00:14:01.797Z,91.50
2017-11-26T00:16:30.047Z,91.20
2017-11-26T00:18:58.719Z,90.80
2017-11-26T00:21:29.259Z,91.50
2017-11-26T00:23:57.497Z,91.40
2017-11-26T00:26:25.820Z,91.50
2017-11-26T00:28:54.102Z,91.50
2017-11-26T00:31:22.348Z,91.40
2017-11-26T00:33:50.594Z,91.70
2017-11-26T00:36:18.862Z,91.40
2017-11-26T00:38:47.092Z,91.40
2017-11-26T00:41:15.352Z,91.10
2017-11-26T00:43:43.883Z,90.90
2017-11-26T00:46:12.130Z,91.10
2017-11-26T00:48:40.368Z,90.90
2017-11-26T00:51:08.835Z,91.20
2017-11-26T00:53:37.846Z,91.70
2017-11-26T00:56:06.848Z,91.90
2017-11-26T00:58:35.872Z,92.10
2017-11-26T01:01:04.108Z,92.10
2017-11-26T01:03:32.344Z,92.40
2017-11-26T01:06:00.807Z,91.50
2017-11-26T01:08:29.042Z,91.70
2017-11-26T01:10:58.053Z,91.60
2017-11-26T01:13:26.322Z,91.60
2017-11-26T01:15:54.580Z,92.00
2017-11-26T01:18:22.826Z,91.90
2017-11-26T01:20:51.255Z,92.50
2017-11-26T01:23:20.495Z,92.40
2017-11-26T01:25:48.737Z,92.40
2017-11-26T01:28:17.338Z,92.60
2017-11-26T01:30:45.583Z,92.50
2017-11-26T01:33:13.816Z,92.20
2017-11-26T01:35:42.083Z,91.90
2017-11-26T01:38:10.320Z,92.10
2017-11-26T01:40:38.583Z,92.00
2017-11-26T01:43:07.919Z,91.80
2017-11-26T01:45:36.155Z,91.70
2017-11-26T01:48:04.497Z,91.40
2017-11-26T01:50:32.816Z,91.60
2017-11-26T01:53:01.831Z,91.80
2017-11-26T01:55:30.072Z,91.70
2017-11-26T01:57:58.332Z,92.10
2017-11-26T02:00:26.567Z,91.70
2017-11-26T02:02:54.804Z,91.70
2017-11-26T02:05:23.064Z,91.60
2017-11-26T02:07:51.308Z,91.70
2017-11-26T02:10:19.711Z,91.50
2017-11-26T02:12:48.164Z,90.80
2017-11-26T02:15:16.403Z,90.00
2017-11-26T02:17:44.639Z,90.60
2017-11-26T02:20:12.915Z,91.10
2017-11-26T02:22:41.363Z,91.10
2017-11-26T02:25:09.601Z,90.50
2017-11-26T02:27:37.944Z,91.20
2017-11-26T02:30:06.172Z,90.30
2017-11-26T02:32:47.254Z,90.20
2017-11-26T02:35:27.368Z,90.60
2017-11-26T02:37:55.628Z,90.30
2017-11-26T02:40:23.870Z,89.20
2017-11-26T02:42:52.105Z,90.20
2017-11-26T02:45:20.373Z,89.90
2017-11-26T02:47:48.614Z,89.70
2017-11-26T02:50:16.849Z,87.90
2017-11-26T02:52:46.215Z,88.60
2017-11-26T02:55:14.456Z,88.50
2017-11-26T02:57:42.704Z,88.00
2017-11-26T03:00:11.719Z,86.00
2017-11-26T03:02:39.951Z,86.00
2017-11-26T03:05:08.186Z,85.80
2017-11-26T03:07:36.548Z,82.70
2017-11-26T03:10:06.001Z,82.10
2017-11-26T03:12:34.235Z,80.30
2017-11-26T03:15:02.560Z,82.20
2017-11-26T03:17:30.800Z,83.20
2017-11-26T03:19:59.044Z,83.90
2017-11-26T03:22:28.071Z,84.20
2017-11-26T03:24:56.540Z,84.20
2017-11-26T03:27:24.755Z,84.60
2017-11-26T03:29:53.024Z,83.70
2017-11-26T03:32:21.280Z,83.20
2017-11-26T03:34:49.514Z,84.60
2017-11-26T03:37:18.859Z,86.00
2017-11-26T03:39:47.095Z,85.90
2017-11-26T03:42:15.328Z,86.40
2017-11-26T03:44:43.583Z,86.30
2017-11-26T03:47:11.818Z,85.80
2017-11-26T03:49:40.070Z,85.30
2017-11-26T03:52:08.319Z,85.60
2017-11-26T03:54:36.555Z,85.40
2017-11-26T03:57:05.561Z,85.20
2017-11-26T03:59:34.656Z,84.80
2017-11-26T04:02:02.901Z,84.70
2017-11-26T04:04:31.265Z,85.50
2017-11-26T04:06:59.536Z,85.70
2017-11-26T04:09:27.772Z,86.60
2017-11-26T04:11:56.016Z,85.90
2017-11-26T04:14:24.272Z,85.70
2017-11-26T04:16:52.508Z,84.60
2017-11-26T04:19:20.764Z,83.50
2017-11-26T04:21:49.867Z,84.30
2017-11-26T04:24:18.094Z,84.20
2017-11-26T04:26:46.468Z,82.90
2017-11-26T04:29:14.734Z,82.70
2017-11-26T04:31:42.959Z,83.00
2017-11-26T04:34:11.199Z,82.90
2017-11-26T04:36:39.468Z,82.80
2017-11-26T04:39:07.705Z,82.40
2017-11-26T04:41:35.956Z,82.20
2017-11-26T04:44:04.563Z,82.40
2017-11-26T04:46:32.812Z,82.80
2017-11-26T04:49:01.813Z,83.80
2017-11-26T04:51:30.970Z,83.30
2017-11-26T04:53:59.193Z,83.30
2017-11-26T04:56:28.196Z,83.30
2017-11-26T04:58:56.455Z,83.30
2017-11-26T05:01:24.692Z,82.00
2017-11-26T05:03:52.928Z,80.40
2017-11-26T05:06:21.429Z,79.40
2017-11-26T05:08:49.664Z,80.70
2017-11-26T05:11:17.900Z,80.50
2017-11-26T05:13:46.160Z,81.20
2017-11-26T05:16:14.396Z,80.30
2017-11-26T05:18:42.635Z,79.50
2017-11-26T05:21:10.901Z,79.60
2017-11-26T05:23:39.139Z,81.10
2017-11-26T05:26:07.378Z,80.90
2017-11-26T05:28:35.969Z,80.80
2017-11-26T05:31:04.260Z,81.00
2017-11-26T05:33:33.267Z,80.50
2017-11-26T05:36:02.293Z,79.70
2017-11-26T05:38:30.519Z,79.70
2017-11-26T05:40:58.759Z,79.80
2017-11-26T05:43:27.018Z,79.20
2017-11-26T05:45:55.259Z,80.50
2017-11-26T05:48:24.260Z,79.70
2017-11-26T05:50:52.714Z,79.60
2017-11-26T05:53:21.163Z,79.20
2017-11-26T05:55:49.404Z,79.50
2017-11-26T05:58:17.668Z,80.10
2017-11-26T06:00:46.674Z,79.00
2017-11-26T06:03:15.697Z,81.20
2017-11-26T06:05:43.947Z,81.10
2017-11-26T06:08:12.188Z,80.30
2017-11-26T06:10:40.429Z,79.40
2017-11-26T06:13:08.897Z,79.00
2017-11-26T06:15:37.127Z,80.40
2017-11-26T06:18:05.365Z,80.50
2017-11-26T06:20:33.619Z,79.40
2017-11-26T06:23:01.864Z,79.60
2017-11-26T06:25:30.878Z,80.30
2017-11-26T06:27:59.140Z,80.20
2017-11-26T06:30:28.739Z,79.50
2017-11-26T06:32:57.738Z,79.90
2017-11-26T06:35:26.923Z,80.10
2017-11-26T06:37:55.162Z,80.00
2017-11-26T06:40:23.451Z,80.70
2017-11-26T06:42:51.707Z,80.20
2017-11-26T06:45:19.960Z,80.20
2017-11-26T06:47:48.182Z,80.20
2017-11-26T06:50:16.444Z,80.40
2017-11-26T06:52:44.683Z,80.10
2017-11-26T06:55:12.922Z,81.20
2017-11-26T06:57:41.564Z,82.00
2017-11-26T07:00:09.802Z,81.90
2017-11-26T07:02:38.039Z,82.10
2017-11-26T07:05:06.295Z,81.80
2017-11-26T07:07:34.531Z,81.30
2017-11-26T07:10:02.771Z,81.00
2017-11-26T07:12:31.027Z,82.50
2017-11-26T07:14:59.259Z,83.60
2017-11-26T07:17:28.266Z,83.20
2017-11-26T07:19:56.686Z,83.20
2017-11-26T07:22:24.925Z,82.60
2017-11-26T07:24:53.152Z,81.70
2017-11-26T07:27:21.415Z,81.70
2017-11-26T07:29:49.648Z,80.70
2017-11-26T07:32:18.219Z,80.90
2017-11-26T07:34:47.244Z,80.10
2017-11-26T07:37:15.475Z,80.10
2017-11-26T07:39:43.714Z,81.00
2017-11-26T07:42:12.288Z,81.50
2017-11-26T07:44:40.523Z,81.90
2017-11-26T07:47:08.755Z,80.80
2017-11-26T07:49:37.025Z,80.40
2017-11-26T07:52:05.251Z,81.40
2017-11-26T07:54:34.255Z,78.70
2017-11-26T07:57:03.290Z,78.20
2017-11-26T07:59:31.511Z,78.10
2017-11-26T08:01:59.794Z,78.30
2017-11-26T08:04:28.102Z,76.70
2017-11-26T08:06:56.332Z,76.70
2017-11-26T08:09:24.576Z,75.60
2017-11-26T08:11:52.835Z,74.80
2017-11-26T08:14:21.072Z,75.70
2017-11-26T08:16:50.071Z,74.30
2017-11-26T08:19:19.128Z,73.40
2017-11-26T08:21:47.367Z,73.50
2017-11-26T08:24:15.600Z,74.30
2017-11-26T08:26:44.140Z,73.90
2017-11-26T08:29:12.376Z,74.90
2017-11-26T08:31:40.615Z,74.00
2017-11-26T08:34:09.255Z,73.30
2017-11-26T08:36:37.486Z,73.40
2017-11-26T08:39:05.728Z,73.60
2017-11-26T08:41:33.984Z,72.10
2017-11-26T08:44:02.219Z,72.00
2017-11-26T08:46:30.455Z,72.30
2017-11-26T08:48:59.239Z,73.60
2017-11-26T08:51:27.473Z,74.30
2017-11-26T08:53:55.707Z,74.00
2017-11-26T08:56:23.973Z,75.20
2017-11-26T08:58:52.220Z,75.10
2017-11-26T09:01:20.453Z,75.90
2017-11-26T09:03:48.715Z,73.50
2017-11-26T09:09:18.232Z,72.90
2017-11-26T09:11:46.467Z,70.90
2017-11-26T09:14:14.709Z,71.00
2017-11-26T09:16:42.967Z,73.10
2017-11-26T09:19:11.208Z,71.90
2017-11-26T09:21:39.444Z,73.70
2017-11-26T09:24:07.706Z,74.00
2017-11-26T09:26:35.939Z,72.50
2017-11-26T09:29:04.171Z,72.70
2017-11-26T09:31:32.494Z,73.60
2017-11-26T09:34:00.724Z,74.30
2017-11-26T09:36:29.215Z,71.50
2017-11-26T09:38:57.474Z,71.10
2017-11-26T09:41:25.711Z,69.30
2017-11-26T09:43:53.955Z,69.40
2017-11-26T09:46:22.984Z,67.10
2017-11-26T09:48:51.222Z,67.10
2017-11-26T09:51:19.455Z,67.40
2017-11-26T09:53:48.134Z,67.20
2017-11-26T09:56:16.366Z,66.80
2017-11-26T09:58:44.604Z,66.70
2017-11-26T10:01:12.872Z,65.20
2017-11-26T10:03:41.110Z,63.60
2017-11-26T10:06:09.343Z,64.20
2017-11-26T10:08:37.602Z,62.80
2017-11-26T10:11:05.839Z,61.10
2017-11-26T10:13:34.078Z,59.00
2017-11-26T10:16:02.540Z,58.50
2017-11-26T10:18:30.814Z,58.00
2017-11-26T10:20:59.292Z,57.20
2017-11-26T10:23:27.556Z,57.30
2017-11-26T10:25:55.792Z,57.00
2017-11-26T10:28:24.800Z,56.40
2017-11-26T10:30:53.059Z,56.50
2017-11-26T10:33:21.300Z,55.90
2017-11-26T10:35:49.536Z,56.70
2017-11-26T10:38:18.450Z,55.50
2017-11-26T10:40:47.399Z,55.70
2017-11-26T10:43:15.639Z,55.70
2017-11-26T10:45:43.919Z,56.70
2017-11-26T10:48:12.143Z,56.30
2017-11-26T10:50:40.376Z,57.10
2017-11-26T10:53:08.639Z,57.00
2017-11-26T10:55:36.883Z,58.20
2017-11-26T10:58:05.115Z,57.90
2017-11-26T11:00:33.544Z,57.60
2017-11-26T11:03:01.784Z,57.50
2017-11-26T11:05:30.796Z,56.30
2017-11-26T11:07:59.184Z,56.20
2017-11-26T11:10:28.411Z,56.50
2017-11-26T11:12:56.812Z,55.80
2017-11-26T11:15:25.191Z,56.50
2017-11-26T11:17:53.423Z,57.00
2017-11-26T11:20:21.687Z,57.00
2017-11-26T11:22:50.492Z,57.10
2017-11-26T11:25:19.919Z,57.30
2017-11-26T11:27:48.190Z,57.70
2017-11-26T11:30:16.441Z,56.70
2017-11-26T11:32:44.747Z,57.30
2017-11-26T11:35:12.987Z,57.00
2017-11-26T11:37:41.245Z,57.30
2017-11-26T11:40:10.542Z,58.00
2017-11-26T11:42:39.551Z,57.00
2017-11-26T11:45:07.980Z,56.90
2017-11-26T11:47:36.216Z,57.30
2017-11-26T11:50:04.456Z,56.40
2017-11-26T11:52:32.716Z,56.30
2017-11-26T11:55:00.947Z,56.50
2017-11-26T11:57:29.500Z,57.20
2017-11-26T11:59:58.523Z,58.20
2017-11-26T12:02:26.759Z,58.20
2017-11-26T12:04:54.992Z,58.00
2017-11-26T12:07:23.391Z,57.60
2017-11-26T12:09:51.629Z,57.40
2017-11-26T12:12:19.896Z,57.90
2017-11-26T12:14:48.155Z,58.20
2017-11-26T12:17:17.163Z,58.20
2017-11-26T12:19:45.408Z,58.10
2017-11-26T12:22:13.784Z,58.30
2017-11-26T12:24:42.003Z,58.40
2017-11-26T12:27:10.315Z,59.10
2017-11-26T12:29:38.905Z,59.00
2017-11-26T12:32:08.303Z,58.60
2017-11-26T12:34:36.706Z,58.80
2017-11-26T12:37:05.100Z,59.50
2017-11-26T12:39:34.108Z,59.50
2017-11-26T12:42:03.416Z,59.10
2017-11-26T12:44:32.693Z,59.00
2017-11-26T12:47:01.035Z,60.00
2017-11-26T12:49:29.425Z,60.40
2017-11-26T12:51:58.000Z,61.10
2017-11-26T12:54:26.220Z,61.40
2017-11-26T12:56:55.475Z,61.70
2017-11-26T12:59:23.889Z,61.50
2017-11-26T13:01:52.232Z,61.50
2017-11-26T13:04:20.619Z,62.80
2017-11-26T13:06:48.881Z,63.20
2017-11-26T13:09:17.128Z,63.50
2017-11-26T13:11:45.379Z,64.70
2017-11-26T13:14:13.707Z,64.60
2017-11-26T13:16:43.231Z,64.60
2017-11-26T13:19:11.496Z,64.90
2017-11-26T13:21:41.005Z,65.60
2017-11-26T13:24:09.247Z,66.60
2017-11-26T13:26:37.712Z,66.50
2017-11-26T13:29:05.975Z,67.40
2017-11-26T13:31:35.002Z,68.60
2017-11-26T13:34:03.239Z,67.70
2017-11-26T13:36:31.912Z,65.30
2017-11-26T13:39:00.136Z,64.20
2017-11-26T13:41:28.366Z,63.50
2017-11-26T13:43:56.678Z,63.10
2017-11-26T13:46:24.944Z,63.60
2017-11-26T13:48:53.960Z,64.50
2017-11-26T13:51:22.220Z,64.40
2017-11-26T13:53:50.455Z,64.20
2017-11-26T13:56:18.691Z,64.30
2017-11-26T13:58:47.000Z,63.40
2017-11-26T14:01:15.277Z,64.90
2017-11-26T14:03:43.522Z,65.70
2017-11-26T14:06:11.783Z,65.70
2017-11-26T14:08:40.783Z,66.30
2017-11-26T14:11:09.023Z,66.30
2017-11-26T14:13:37.286Z,66.40
2017-11-26T14:16:05.521Z,67.00
2017-11-26T14:18:33.760Z,66.90
2017-11-26T14:21:02.398Z,67.90
2017-11-26T14:23:30.629Z,69.00
2017-11-26T14:26:01.013Z,70.80
2017-11-26T14:28:29.286Z,70.60
2017-11-26T14:30:57.526Z,72.80
2017-11-26T14:33:25.760Z,73.70
2017-11-26T14:35:54.027Z,72.90
2017-11-26T14:38:22.259Z,73.20
2017-11-26T14:40:50.505Z,74.50
2017-11-26T14:43:20.158Z,74.80
2017-11-26T14:45:48.795Z,74.40
2017-11-26T14:48:17.023Z,74.00
2017-11-26T14:50:46.474Z,73.90
2017-11-26T14:53:14.720Z,74.40
2017-11-26T14:55:42.986Z,74.90
2017-11-26T14:58:11.251Z,74.20
2017-11-26T15:00:39.487Z,73.50
2017-11-26T15:03:07.723Z,74.10
2017-11-26T15:05:36.119Z,74.30
2017-11-26T15:08:04.356Z,74.30
2017-11-26T15:10:32.596Z,74.50
2017-11-26T15:13:01.636Z,74.40
2017-11-26T15:15:29.868Z,74.30
2017-11-26T15:17:58.108Z,74.20
2017-11-26T15:20:26.373Z,75.10
2017-11-26T15:22:54.603Z,75.70
2017-11-26T15:25:22.839Z,74.30
2017-11-26T15:27:51.613Z,75.40
2017-11-26T15:30:19.834Z,75.10
2017-11-26T15:32:48.948Z,74.70
2017-11-26T15:35:17.979Z,74.30
2017-11-26T15:37:46.214Z,74.30
2017-11-26T15:40:14.452Z,74.20
2017-11-26T15:42:42.710Z,74.20
2017-11-26T15:45:10.949Z,73.60
2017-11-26T15:47:39.545Z,72.90
2017-11-26T15:50:08.035Z,72.70
2017-11-26T15:52:36.274Z,73.10
2017-11-26T15:55:05.276Z,73.10
2017-11-26T15:57:34.313Z,72.80
2017-11-26T16:00:02.541Z,72.80
2017-11-26T16:02:30.780Z,72.30
2017-11-26T16:04:59.042Z,72.90
2017-11-26T16:07:27.284Z,72.40
2017-11-26T16:09:55.524Z,73.00
2017-11-26T16:12:23.876Z,72.60
2017-11-26T16:14:52.107Z,72.80
2017-11-26T16:17:20.343Z,72.40
2017-11-26T16:19:48.605Z,73.30
2017-11-26T16:22:16.848Z,72.80
2017-11-26T16:24:45.087Z,72.40
2017-11-26T16:27:13.347Z,71.50
2017-11-26T16:29:41.584Z,71.90
2017-11-26T16:32:09.836Z,71.90
2017-11-26T16:34:38.451Z,71.70
2017-11-26T16:37:06.687Z,71.50
2017-11-26T16:39:34.924Z,72.30
2017-11-26T16:42:03.183Z,72.10
2017-11-26T16:44:31.419Z,72.30
2017-11-26T16:46:59.659Z,71.30
2017-11-26T16:49:28.171Z,72.80
2017-11-26T16:51:57.176Z,71.80
2017-11-26T16:54:26.182Z,70.50
2017-11-26T16:56:54.803Z,70.50
2017-11-26T16:59:23.043Z,69.80
2017-11-26T17:01:51.304Z,70.10
2017-11-26T17:04:19.569Z,69.30
2017-11-26T17:06:47.809Z,69.30
2017-11-26T17:09:16.808Z,70.60
2017-11-26T17:11:45.071Z,70.60
2017-11-26T17:14:13.319Z,71.10
2017-11-26T17:16:41.566Z,71.10
2017-11-26T17:19:09.917Z,71.10
2017-11-26T17:21:38.160Z,69.70
2017-11-26T17:24:06.449Z,70.30
2017-11-26T17:26:34.724Z,70.00
2017-11-26T17:29:02.963Z,70.20
2017-11-26T17:31:31.203Z,70.30
2017-11-26T17:33:59.511Z,71.10
2017-11-26T17:36:28.512Z,71.90
2017-11-26T17:38:57.524Z,73.70
2017-11-26T17:41:26.294Z,73.70
2017-11-26T17:43:54.530Z,74.30
2017-11-26T17:46:22.752Z,75.00
2017-11-26T17:48:51.044Z,76.70
2017-11-26T17:51:19.714Z,76.80
2017-11-26T17:53:48.724Z,75.20
2017-11-26T17:56:17.004Z,75.20
2017-11-26T17:58:45.243Z,74.40
2017-11-26T18:01:13.507Z,74.60
2017-11-26T18:03:41.903Z,74.70
2017-11-26T18:06:10.904Z,73.70
2017-11-26T18:08:39.913Z,73.50
2017-11-26T18:11:08.167Z,73.50
2017-11-26T18:13:36.411Z,72.20
2017-11-26T18:16:04.684Z,71.40
2017-11-26T18:18:32.927Z,71.30
2017-11-26T18:21:01.176Z,71.50
2017-11-26T18:23:31.405Z,72.00
2017-11-26T18:26:00.511Z,71.50
2017-11-26T18:28:28.751Z,71.50
2017-11-26T18:30:57.003Z,71.40
2017-11-26T18:33:25.295Z,72.90
2017-11-26T18:35:53.540Z,73.00
2017-11-26T18:38:21.987Z,73.20
2017-11-26T18:40:51.026Z,73.50
2017-11-26T18:43:19.307Z,73.50
2017-11-26T18:45:47.544Z,73.40
2017-11-26T18:48:15.924Z,73.00
2017-11-26T18:50:44.184Z,72.90
2017-11-26T18:53:15.329Z,74.00
2017-11-26T18:55:44.375Z,74.50
2017-11-26T18:58:12.863Z,74.50
2017-11-26T19:00:41.103Z,74.20
2017-11-26T19:03:10.119Z,74.70
2017-11-26T19:05:38.375Z,74.70
2017-11-26T19:08:06.623Z,74.90
2017-11-26T19:10:35.270Z,75.40
2017-11-26T19:13:03.496Z,76.20
2017-11-26T19:15:31.736Z,76.20
2017-11-26T19:18:00.007Z,76.70
2017-11-26T19:20:28.388Z,76.70
2017-11-26T19:22:56.611Z,77.60
2017-11-26T19:25:24.880Z,77.80
2017-11-26T19:27:53.879Z,77.90
2017-11-26T19:30:22.115Z,77.90
2017-11-26T19:32:50.442Z,78.10
2017-11-26T19:35:18.671Z,78.50
2017-11-26T19:37:46.927Z,78.20
2017-11-26T19:40:15.504Z,78.50
2017-11-26T19:42:45.939Z,79.20
2017-11-26T19:45:14.185Z,78.80
2017-11-26T19:47:42.456Z,78.00
2017-11-26T19:50:10.692Z,78.20
2017-11-26T19:52:38.940Z,78.30
2017-11-26T19:55:07.419Z,78.50
2017-11-26T19:57:36.420Z,78.10
2017-11-26T20:00:04.665Z,78.50
2017-11-26T20:02:32.932Z,78.40
2017-11-26T20:05:01.361Z,79.00
2017-11-26T20:07:29.604Z,79.00
2017-11-26T20:09:57.863Z,78.60
2017-11-26T20:12:26.099Z,78.40
2017-11-26T20:14:54.343Z,78.50
2017-11-26T20:17:22.756Z,78.00
2017-11-26T20:19:51.029Z,77.60
2017-11-26T20:22:19.272Z,78.10
2017-11-26T20:24:47.527Z,79.00
2017-11-26T20:27:15.770Z,78.90
2017-11-26T20:29:44.010Z,78.60
2017-11-26T20:32:12.275Z,78.80
2017-11-26T20:34:40.511Z,78.70
2017-11-26T20:37:09.512Z,79.40
2017-11-26T20:39:37.822Z,79.20
2017-11-26T20:42:06.080Z,78.70
2017-11-26T20:44:34.328Z,78.40
2017-11-26T20:47:03.356Z,78.20
2017-11-26T20:49:31.604Z,78.20
2017-11-26T20:52:00.624Z,80.50
2017-11-26T20:54:28.881Z,80.20
2017-11-26T20:56:57.123Z,79.50
2017-11-26T20:59:25.370Z,78.20
2017-11-26T21:01:53.706Z,78.20
2017-11-26T21:04:21.949Z,77.60
2017-11-26T21:06:50.184Z,77.90
2017-11-26T21:09:18.443Z,77.40
2017-11-26T21:11:46.678Z,77.40
2017-11-26T21:14:14.927Z,77.60
2017-11-26T21:16:43.184Z,77.30
2017-11-26T21:19:11.429Z,76.40
2017-11-26T21:21:39.665Z,76.70
2017-11-26T21:24:07.986Z,75.90
2017-11-26T21:26:36.988Z,76.80
2017-11-26T21:29:06.012Z,77.20
2017-11-26T21:31:34.336Z,77.10
2017-11-26T21:34:02.580Z,76.90
2017-11-26T21:36:30.816Z,76.40
2017-11-26T21:38:59.864Z,76.90
2017-11-26T21:41:28.555Z,76.90
2017-11-26T21:43:56.792Z,76.50
2017-11-26T21:46:25.098Z,76.60
2017-11-26T21:48:53.371Z,75.60
2017-11-26T21:51:21.615Z,77.30
2017-11-26T21:53:49.876Z,77.80
2017-11-26T21:56:18.119Z,77.40
2017-11-26T21:58:46.365Z,76.20
2017-11-26T22:01:14.627Z,76.00
2017-11-26T22:03:42.865Z,75.60
2017-11-26T22:06:11.324Z,75.10
2017-11-26T22:08:39.804Z,74.90
2017-11-26T22:11:08.039Z,74.90
2017-11-26T22:13:36.289Z,76.00
2017-11-26T22:16:04.556Z,75.40
2017-11-26T22:18:32.806Z,75.50
2017-11-26T22:21:01.057Z,74.60
2017-11-26T22:23:29.320Z,75.10
2017-11-26T22:25:57.562Z,75.20
2017-11-26T22:28:25.811Z,75.30
2017-11-26T22:30:54.287Z,76.00
2017-11-26T22:33:22.515Z,74.90
2017-11-26T22:35:50.797Z,75.50
2017-11-26T22:38:19.815Z,75.40
2017-11-26T22:40:48.053Z,75.40
2017-11-26T22:43:17.072Z,75.20
2017-11-26T22:45:45.344Z,75.10
2017-11-26T22:48:13.587Z,75.20
2017-11-26T22:50:42.768Z,75.60
2017-11-26T22:53:11.096Z,74.50
2017-11-26T22:55:39.347Z,74.30
2017-11-26T22:58:07.579Z,74.90
2017-11-26T23:00:36.948Z,75.80
2017-11-26T23:03:05.948Z,77.80
2017-11-26T23:05:34.208Z,77.00
2017-11-26T23:08:02.467Z,76.10
2017-11-26T23:10:30.704Z,76.50
2017-11-26T23:12:58.939Z,75.90
2017-11-26T23:15:27.396Z,76.30
2017-11-26T23:17:55.648Z,75.60
2017-11-26T23:20:23.879Z,75.30
2017-11-26T23:22:52.135Z,74.90
2017-11-26T23:25:20.372Z,74.40
2017-11-26T23:27:48.612Z,74.10
2017-11-26T23:30:16.875Z,74.10
2017-11-26T23:32:45.879Z,75.40
2017-11-26T23:35:14.131Z,75.30
2017-11-26T23:37:42.964Z,77.30
2017-11-26T23:40:11.196Z,78.30
2017-11-26T23:42:39.439Z,77.70
2017-11-26T23:45:07.707Z,77.40
2017-11-26T23:47:35.940Z,76.60
2017-11-26T23:50:04.985Z,75.50
2017-11-26T23:52:33.235Z,75.40
2017-11-26T23:55:01.475Z,75.10
2017-11-26T23:57:29.712Z,75.00
2017-11-26T23:59:58.378Z,75.70
